SAS1415 ESSA-EKCH
Flight info
| Callsign | SAS1415 |
|---|---|
| Flight time | 0h 55m |
| Altitude | 40000 |
| Route | PETEV N872 ERNOV |
| Aircraft | A343/H-SDE2E3FGHIJ4J5M1RWXY/LB1D1 |
Departure
| Time | 2026-04-21 22:46 |
|---|---|
| Airport | Stockholm-Arlanda Airport (ESSA) |
Arrival
| Time | 2026-04-21 23:41 |
|---|---|
| Airport | Copenhagen Kastrup Airport (EKCH) |
| Time | Latitude | Longitude | Altitude | Speed | Heading |
|---|---|---|---|---|---|
| 2026-04-21 22:19 | 59.65431 | 17.93484 | 112 ft | 0 kts | 76° |
| 2026-04-21 22:34 | 59.65429 | 17.93471 | 111 ft | 4 kts | 74° |
| 2026-04-21 22:35 | 59.65424 | 17.93437 | 111 ft | 4 kts | 65° |
| 2026-04-21 22:35 | 59.65410 | 17.93394 | 112 ft | 4 kts | 38° |
| 2026-04-21 22:35 | 59.65389 | 17.93377 | 111 ft | 2 kts | 347° |
| 2026-04-21 22:35 | 59.65387 | 17.93378 | 112 ft | 0 kts | 346° |
| 2026-04-21 22:39 | 59.65401 | 17.93371 | 113 ft | 6 kts | 346° |
| 2026-04-21 22:39 | 59.65462 | 17.93347 | 114 ft | 10 kts | 356° |
| 2026-04-21 22:40 | 59.65518 | 17.93282 | 116 ft | 10 kts | 290° |
| 2026-04-21 22:40 | 59.65510 | 17.93133 | 115 ft | 12 kts | 257° |
| 2026-04-21 22:40 | 59.65482 | 17.92945 | 112 ft | 16 kts | 251° |
| 2026-04-21 22:40 | 59.65433 | 17.92716 | 113 ft | 20 kts | 239° |
| 2026-04-21 22:41 | 59.65331 | 17.92498 | 110 ft | 23 kts | 216° |
| 2026-04-21 22:41 | 59.65176 | 17.92375 | 114 ft | 25 kts | 192° |
| 2026-04-21 22:41 | 59.65005 | 17.92313 | 113 ft | 24 kts | 194° |
| 2026-04-21 22:41 | 59.64975 | 17.92263 | 111 ft | 11 kts | 237° |
| 2026-04-21 22:42 | 59.64933 | 17.92123 | 111 ft | 8 kts | 208° |
| 2026-04-21 22:42 | 59.64871 | 17.92097 | 111 ft | 12 kts | 190° |
| 2026-04-21 22:42 | 59.64758 | 17.92056 | 111 ft | 22 kts | 189° |
| 2026-04-21 22:42 | 59.64575 | 17.91990 | 113 ft | 31 kts | 191° |
| 2026-04-21 22:43 | 59.64339 | 17.91904 | 116 ft | 38 kts | 190° |
| 2026-04-21 22:43 | 59.64059 | 17.91804 | 115 ft | 38 kts | 190° |
| 2026-04-21 22:43 | 59.63943 | 17.91763 | 112 ft | 16 kts | 190° |
| 2026-04-21 22:43 | 59.63829 | 17.91684 | 110 ft | 19 kts | 215° |
| 2026-04-21 22:44 | 59.63731 | 17.91496 | 111 ft | 19 kts | 249° |
| 2026-04-21 22:44 | 59.63765 | 17.91341 | 114 ft | 9 kts | 341° |
| 2026-04-21 22:44 | 59.63834 | 17.91350 | 110 ft | 12 kts | 9° |
| 2026-04-21 22:44 | 59.63855 | 17.91358 | 110 ft | 1 kts | 11° |
| 2026-04-21 22:45 | 59.63873 | 17.91365 | 111 ft | 4 kts | 11° |
| 2026-04-21 22:45 | 59.63904 | 17.91381 | 111 ft | 6 kts | 17° |
| 2026-04-21 22:45 | 59.64126 | 17.91466 | 111 ft | 68 kts | 11° |
| 2026-04-21 22:45 | 59.64799 | 17.91718 | 110 ft | 127 kts | 11° |
| 2026-04-21 22:46 | 59.65826 | 17.92088 | 118 ft | 170 kts | 9° |
| 2026-04-21 22:46 | 59.66957 | 17.92754 | 828 ft | 164 kts | 22° |
| 2026-04-21 22:46 | 59.68189 | 17.93329 | 846 ft | 206 kts | 4° |
| 2026-04-21 22:46 | 59.69650 | 17.92412 | 1236 ft | 237 kts | 332° |
| 2026-04-21 22:47 | 59.70808 | 17.89882 | 1892 ft | 262 kts | 307° |
| 2026-04-21 22:47 | 59.71275 | 17.86409 | 2988 ft | 266 kts | 278° |
| 2026-04-21 22:47 | 59.70926 | 17.82916 | 4381 ft | 253 kts | 255° |
| 2026-04-21 22:47 | 59.70367 | 17.79760 | 5832 ft | 233 kts | 262° |
| 2026-04-21 22:48 | 59.69837 | 17.76769 | 6922 ft | 237 kts | 248° |
| 2026-04-21 22:48 | 59.68883 | 17.73913 | 7576 ft | 255 kts | 251° |
| 2026-04-21 22:48 | 59.68147 | 17.70622 | 8221 ft | 269 kts | 257° |
| 2026-04-21 22:48 | 59.67286 | 17.67206 | 8890 ft | 286 kts | 244° |
| 2026-04-21 22:49 | 59.65846 | 17.64362 | 9714 ft | 302 kts | 220° |
| 2026-04-21 22:49 | 59.63902 | 17.62630 | 10593 ft | 311 kts | 205° |
| 2026-04-21 22:49 | 59.61781 | 17.61292 | 11039 ft | 331 kts | 203° |
| 2026-04-21 22:49 | 59.59515 | 17.59914 | 11428 ft | 348 kts | 203° |
| 2026-04-21 22:50 | 59.57173 | 17.58483 | 12040 ft | 356 kts | 203° |
| 2026-04-21 22:50 | 59.54828 | 17.57031 | 12755 ft | 361 kts | 204° |
| 2026-04-21 22:50 | 59.52516 | 17.55082 | 13598 ft | 361 kts | 215° |
| 2026-04-21 22:50 | 59.50462 | 17.52211 | 14260 ft | 364 kts | 227° |
| 2026-04-21 22:51 | 59.48556 | 17.48867 | 14813 ft | 370 kts | 229° |
| 2026-04-21 22:51 | 59.46647 | 17.45436 | 15475 ft | 373 kts | 229° |
| 2026-04-21 22:51 | 59.44720 | 17.41998 | 16170 ft | 377 kts | 229° |
| 2026-04-21 22:51 | 59.42762 | 17.38527 | 16836 ft | 380 kts | 229° |
| 2026-04-21 22:52 | 59.40784 | 17.35043 | 17511 ft | 384 kts | 228° |
| 2026-04-21 22:52 | 59.38785 | 17.31533 | 18168 ft | 388 kts | 228° |
| 2026-04-21 22:52 | 59.36759 | 17.27986 | 18771 ft | 392 kts | 228° |
| 2026-04-21 22:52 | 59.34713 | 17.24412 | 19356 ft | 395 kts | 228° |
| 2026-04-21 22:53 | 59.32652 | 17.20820 | 19927 ft | 399 kts | 228° |
| 2026-04-21 22:53 | 59.30566 | 17.17191 | 20468 ft | 403 kts | 228° |
| 2026-04-21 22:53 | 59.28462 | 17.13538 | 21017 ft | 406 kts | 228° |
| 2026-04-21 22:53 | 59.26342 | 17.09865 | 21563 ft | 409 kts | 228° |
| 2026-04-21 22:54 | 59.24205 | 17.06168 | 22102 ft | 411 kts | 227° |
| 2026-04-21 22:54 | 59.22051 | 17.02447 | 22623 ft | 414 kts | 227° |
| 2026-04-21 22:54 | 59.19917 | 16.98764 | 23130 ft | 417 kts | 227° |
| 2026-04-21 22:54 | 59.17745 | 16.94979 | 23615 ft | 420 kts | 228° |
| 2026-04-21 22:55 | 59.15552 | 16.91188 | 24042 ft | 423 kts | 227° |
| 2026-04-21 22:55 | 59.13318 | 16.87407 | 24436 ft | 426 kts | 226° |
| 2026-04-21 22:55 | 59.11057 | 16.83661 | 24809 ft | 429 kts | 226° |
| 2026-04-21 22:55 | 59.08761 | 16.79911 | 25159 ft | 432 kts | 226° |
| 2026-04-21 22:56 | 59.06441 | 16.76160 | 25506 ft | 435 kts | 226° |
| 2026-04-21 22:56 | 59.04103 | 16.72402 | 25862 ft | 438 kts | 226° |
| 2026-04-21 22:56 | 59.01749 | 16.68625 | 26231 ft | 440 kts | 226° |
| 2026-04-21 22:56 | 58.99383 | 16.64835 | 26592 ft | 442 kts | 226° |
| 2026-04-21 22:57 | 58.97010 | 16.61036 | 26931 ft | 444 kts | 226° |
| 2026-04-21 22:57 | 58.94619 | 16.57212 | 27275 ft | 446 kts | 225° |
| 2026-04-21 22:57 | 58.92219 | 16.53380 | 27599 ft | 448 kts | 225° |
| 2026-04-21 22:57 | 58.89802 | 16.49522 | 27937 ft | 450 kts | 225° |
| 2026-04-21 22:58 | 58.87381 | 16.45658 | 28233 ft | 453 kts | 225° |
| 2026-04-21 22:58 | 58.84942 | 16.41785 | 28536 ft | 455 kts | 225° |
| 2026-04-21 22:58 | 58.82488 | 16.37899 | 28815 ft | 458 kts | 225° |
| 2026-04-21 22:58 | 58.80020 | 16.33998 | 29091 ft | 460 kts | 225° |
| 2026-04-21 22:59 | 58.77537 | 16.30082 | 29376 ft | 462 kts | 225° |
| 2026-04-21 22:59 | 58.75043 | 16.26155 | 29648 ft | 464 kts | 225° |
| 2026-04-21 22:59 | 58.72572 | 16.22269 | 29934 ft | 465 kts | 225° |
| 2026-04-21 22:59 | 58.70024 | 16.18274 | 30200 ft | 467 kts | 225° |
| 2026-04-21 23:00 | 58.67500 | 16.14322 | 30422 ft | 469 kts | 225° |
| 2026-04-21 23:00 | 58.64999 | 16.10409 | 30635 ft | 471 kts | 225° |
| 2026-04-21 23:00 | 58.62453 | 16.06434 | 30832 ft | 472 kts | 224° |
| 2026-04-21 23:00 | 58.59898 | 16.02454 | 31043 ft | 474 kts | 225° |
| 2026-04-21 23:01 | 58.57330 | 15.98461 | 31236 ft | 476 kts | 225° |
| 2026-04-21 23:01 | 58.54750 | 15.94459 | 31438 ft | 477 kts | 224° |
| 2026-04-21 23:01 | 58.52168 | 15.90461 | 31644 ft | 479 kts | 224° |
| 2026-04-21 23:01 | 58.49568 | 15.86443 | 31838 ft | 480 kts | 224° |
| 2026-04-21 23:02 | 58.46965 | 15.82429 | 32023 ft | 481 kts | 224° |
| 2026-04-21 23:02 | 58.44351 | 15.78405 | 32198 ft | 483 kts | 224° |
| 2026-04-21 23:02 | 58.41725 | 15.74372 | 32392 ft | 484 kts | 224° |
| 2026-04-21 23:02 | 58.39101 | 15.70352 | 32606 ft | 484 kts | 224° |
| 2026-04-21 23:03 | 58.36480 | 15.66348 | 32846 ft | 483 kts | 224° |
| 2026-04-21 23:03 | 58.33852 | 15.62341 | 33070 ft | 485 kts | 224° |
| 2026-04-21 23:03 | 58.31243 | 15.58371 | 33243 ft | 486 kts | 224° |
| 2026-04-21 23:03 | 58.28604 | 15.54367 | 33494 ft | 485 kts | 224° |
| 2026-04-21 23:04 | 58.25965 | 15.50373 | 33760 ft | 484 kts | 224° |
| 2026-04-21 23:04 | 58.23322 | 15.46380 | 34010 ft | 484 kts | 224° |
| 2026-04-21 23:04 | 58.20692 | 15.42423 | 34410 ft | 478 kts | 224° |
| 2026-04-21 23:04 | 58.18102 | 15.38556 | 34986 ft | 468 kts | 223° |
| 2026-04-21 23:05 | 58.15595 | 15.34838 | 35554 ft | 458 kts | 223° |
| 2026-04-21 23:05 | 58.13111 | 15.31176 | 36123 ft | 448 kts | 223° |
| 2026-04-21 23:05 | 58.10675 | 15.27599 | 36660 ft | 439 kts | 223° |
| 2026-04-21 23:05 | 58.08270 | 15.24075 | 36995 ft | 435 kts | 223° |
| 2026-04-21 23:06 | 58.05879 | 15.20563 | 37201 ft | 435 kts | 223° |
| 2026-04-21 23:06 | 58.03489 | 15.17038 | 37322 ft | 436 kts | 223° |
| 2026-04-21 23:06 | 58.01102 | 15.13502 | 37432 ft | 438 kts | 223° |
| 2026-04-21 23:06 | 57.98696 | 15.09924 | 37375 ft | 440 kts | 223° |
| 2026-04-21 23:07 | 57.93904 | 15.02801 | 37245 ft | 438 kts | 223° |
| 2026-04-21 23:07 | 57.91508 | 14.99244 | 36830 ft | 438 kts | 223° |
| 2026-04-21 23:07 | 57.89110 | 14.95686 | 36193 ft | 440 kts | 223° |
| 2026-04-21 23:08 | 57.86710 | 14.92127 | 35637 ft | 440 kts | 224° |
| 2026-04-21 23:08 | 57.84305 | 14.88565 | 35094 ft | 439 kts | 224° |
| 2026-04-21 23:08 | 57.81941 | 14.85068 | 34572 ft | 439 kts | 224° |
| 2026-04-21 23:08 | 57.79537 | 14.81517 | 34012 ft | 438 kts | 224° |
| 2026-04-21 23:09 | 57.77140 | 14.77984 | 33399 ft | 437 kts | 224° |
| 2026-04-21 23:09 | 57.74748 | 14.74463 | 32799 ft | 437 kts | 224° |
| 2026-04-21 23:09 | 57.72362 | 14.70960 | 32218 ft | 435 kts | 224° |
| 2026-04-21 23:09 | 57.69981 | 14.67470 | 31640 ft | 434 kts | 224° |
| 2026-04-21 23:10 | 57.67604 | 14.63993 | 31048 ft | 433 kts | 225° |
| 2026-04-21 23:10 | 57.65238 | 14.60536 | 30496 ft | 431 kts | 225° |
| 2026-04-21 23:10 | 57.62875 | 14.57093 | 29908 ft | 430 kts | 225° |
| 2026-04-21 23:10 | 57.60521 | 14.53674 | 29271 ft | 429 kts | 225° |
| 2026-04-21 23:11 | 57.58167 | 14.50260 | 28645 ft | 427 kts | 225° |
| 2026-04-21 23:11 | 57.55824 | 14.46869 | 28040 ft | 425 kts | 225° |
| 2026-04-21 23:11 | 57.53488 | 14.43491 | 27445 ft | 424 kts | 225° |
| 2026-04-21 23:11 | 57.51165 | 14.40137 | 26863 ft | 422 kts | 225° |
| 2026-04-21 23:12 | 57.48848 | 14.36797 | 26291 ft | 420 kts | 225° |
| 2026-04-21 23:12 | 57.46571 | 14.33521 | 25754 ft | 418 kts | 225° |
| 2026-04-21 23:12 | 57.44274 | 14.30223 | 25187 ft | 416 kts | 225° |
| 2026-04-21 23:12 | 57.41987 | 14.26943 | 24659 ft | 414 kts | 225° |
| 2026-04-21 23:13 | 57.39711 | 14.23687 | 24129 ft | 412 kts | 225° |
| 2026-04-21 23:13 | 57.37449 | 14.20459 | 23558 ft | 410 kts | 224° |
| 2026-04-21 23:13 | 57.35196 | 14.17250 | 22944 ft | 407 kts | 224° |
| 2026-04-21 23:13 | 57.32953 | 14.14059 | 22340 ft | 405 kts | 224° |
| 2026-04-21 23:14 | 57.30728 | 14.10897 | 21769 ft | 402 kts | 224° |
| 2026-04-21 23:14 | 57.28516 | 14.07757 | 21188 ft | 400 kts | 224° |
| 2026-04-21 23:14 | 57.26320 | 14.04645 | 20642 ft | 397 kts | 224° |
| 2026-04-21 23:14 | 57.24133 | 14.01551 | 20085 ft | 394 kts | 224° |
| 2026-04-21 23:15 | 57.21953 | 13.98472 | 19542 ft | 392 kts | 224° |
| 2026-04-21 23:15 | 57.19795 | 13.95429 | 19006 ft | 389 kts | 223° |
| 2026-04-21 23:15 | 57.17647 | 13.92406 | 18461 ft | 387 kts | 223° |
| 2026-04-21 23:15 | 57.15514 | 13.89405 | 17881 ft | 384 kts | 223° |
| 2026-04-21 23:16 | 57.13398 | 13.86421 | 17286 ft | 382 kts | 223° |
| 2026-04-21 23:16 | 57.11315 | 13.83500 | 16714 ft | 380 kts | 223° |
| 2026-04-21 23:16 | 57.09219 | 13.80575 | 16146 ft | 377 kts | 222° |
| 2026-04-21 23:16 | 57.07130 | 13.77668 | 15586 ft | 375 kts | 222° |
| 2026-04-21 23:17 | 57.05058 | 13.74792 | 15040 ft | 372 kts | 222° |
| 2026-04-21 23:17 | 57.03000 | 13.71941 | 14494 ft | 370 kts | 221° |
| 2026-04-21 23:17 | 57.00952 | 13.69107 | 13963 ft | 367 kts | 221° |
| 2026-04-21 23:17 | 56.98919 | 13.66299 | 13345 ft | 364 kts | 221° |
| 2026-04-21 23:18 | 56.96903 | 13.63516 | 12763 ft | 362 kts | 221° |
| 2026-04-21 23:18 | 56.94902 | 13.60760 | 12187 ft | 359 kts | 221° |
| 2026-04-21 23:18 | 56.92912 | 13.58022 | 11626 ft | 356 kts | 221° |
| 2026-04-21 23:18 | 56.90941 | 13.55311 | 11073 ft | 353 kts | 220° |
| 2026-04-21 23:19 | 56.88982 | 13.52619 | 10524 ft | 350 kts | 220° |
| 2026-04-21 23:19 | 56.87046 | 13.49960 | 9984 ft | 346 kts | 220° |
| 2026-04-21 23:19 | 56.85129 | 13.47332 | 9395 ft | 343 kts | 220° |
| 2026-04-21 23:19 | 56.83276 | 13.44808 | 9190 ft | 328 kts | 221° |
| 2026-04-21 23:20 | 56.81495 | 13.42382 | 9113 ft | 311 kts | 221° |
| 2026-04-21 23:20 | 56.79795 | 13.40085 | 8996 ft | 297 kts | 220° |
| 2026-04-21 23:20 | 56.78161 | 13.37905 | 8889 ft | 285 kts | 220° |
| 2026-04-21 23:20 | 56.76587 | 13.35830 | 8746 ft | 274 kts | 220° |
| 2026-04-21 23:21 | 56.75062 | 13.33831 | 8639 ft | 264 kts | 220° |
| 2026-04-21 23:21 | 56.73595 | 13.31914 | 8531 ft | 255 kts | 220° |
| 2026-04-21 23:21 | 56.72177 | 13.30054 | 8421 ft | 247 kts | 220° |
| 2026-04-21 23:21 | 56.70790 | 13.28230 | 8363 ft | 245 kts | 220° |
| 2026-04-21 23:22 | 56.69877 | 13.27023 | 8334 ft | 245 kts | 221° |
| 2026-04-21 23:22 | 56.68496 | 13.25183 | 8287 ft | 245 kts | 221° |
| 2026-04-21 23:22 | 56.67126 | 13.23341 | 8243 ft | 245 kts | 221° |
| 2026-04-21 23:22 | 56.65756 | 13.21491 | 8186 ft | 245 kts | 221° |
| 2026-04-21 23:23 | 56.64391 | 13.19643 | 8151 ft | 245 kts | 221° |
| 2026-04-21 23:23 | 56.63006 | 13.17827 | 8095 ft | 245 kts | 219° |
| 2026-04-21 23:23 | 56.61604 | 13.16075 | 8036 ft | 244 kts | 219° |
| 2026-04-21 23:23 | 56.60216 | 13.14302 | 7987 ft | 244 kts | 220° |
| 2026-04-21 23:24 | 56.58852 | 13.12523 | 7931 ft | 244 kts | 220° |
| 2026-04-21 23:24 | 56.57484 | 13.10712 | 7888 ft | 244 kts | 221° |
| 2026-04-21 23:24 | 56.56118 | 13.08892 | 7833 ft | 244 kts | 221° |
| 2026-04-21 23:24 | 56.54749 | 13.07059 | 7788 ft | 251 kts | 221° |
| 2026-04-21 23:25 | 56.53276 | 13.05048 | 7720 ft | 274 kts | 222° |
| 2026-04-21 23:25 | 56.51736 | 13.02934 | 7645 ft | 279 kts | 221° |
| 2026-04-21 23:25 | 56.50181 | 13.00819 | 7605 ft | 280 kts | 221° |
| 2026-04-21 23:25 | 56.48624 | 12.98716 | 7549 ft | 279 kts | 221° |
| 2026-04-21 23:26 | 56.47068 | 12.96626 | 7502 ft | 279 kts | 221° |
| 2026-04-21 23:26 | 56.45509 | 12.94538 | 7461 ft | 278 kts | 221° |
| 2026-04-21 23:26 | 56.43951 | 12.92456 | 7408 ft | 278 kts | 221° |
| 2026-04-21 23:26 | 56.42390 | 12.90373 | 7358 ft | 278 kts | 221° |
| 2026-04-21 23:27 | 56.40837 | 12.88303 | 7299 ft | 277 kts | 221° |
| 2026-04-21 23:27 | 56.39285 | 12.86238 | 7256 ft | 277 kts | 221° |
| 2026-04-21 23:27 | 56.37752 | 12.84200 | 7207 ft | 277 kts | 221° |
| 2026-04-21 23:27 | 56.36202 | 12.82142 | 7153 ft | 277 kts | 221° |
| 2026-04-21 23:28 | 56.34653 | 12.80086 | 7112 ft | 276 kts | 221° |
| 2026-04-21 23:28 | 56.33101 | 12.78029 | 7059 ft | 276 kts | 221° |
| 2026-04-21 23:28 | 56.31554 | 12.75981 | 7008 ft | 276 kts | 221° |
| 2026-04-21 23:28 | 56.30005 | 12.73932 | 6950 ft | 276 kts | 221° |
| 2026-04-21 23:29 | 56.28459 | 12.71888 | 6896 ft | 276 kts | 221° |
| 2026-04-21 23:29 | 56.26913 | 12.69848 | 6862 ft | 276 kts | 221° |
| 2026-04-21 23:29 | 56.25368 | 12.67812 | 6800 ft | 275 kts | 221° |
| 2026-04-21 23:29 | 56.23820 | 12.65772 | 6770 ft | 275 kts | 221° |
| 2026-04-21 23:30 | 56.22273 | 12.63737 | 6727 ft | 275 kts | 221° |
| 2026-04-21 23:30 | 56.20728 | 12.61705 | 6665 ft | 275 kts | 221° |
| 2026-04-21 23:30 | 56.19184 | 12.59677 | 6615 ft | 275 kts | 221° |
| 2026-04-21 23:30 | 56.17606 | 12.57758 | 6544 ft | 275 kts | 214° |
| 2026-04-21 23:31 | 56.15810 | 12.56559 | 6487 ft | 278 kts | 192° |
| 2026-04-21 23:31 | 56.13893 | 12.56750 | 6443 ft | 277 kts | 167° |
| 2026-04-21 23:31 | 56.12089 | 12.57895 | 6414 ft | 273 kts | 160° |
| 2026-04-21 23:31 | 56.10359 | 12.59177 | 6364 ft | 270 kts | 160° |
| 2026-04-21 23:32 | 56.08627 | 12.60470 | 6318 ft | 270 kts | 160° |
| 2026-04-21 23:32 | 56.06890 | 12.61757 | 6261 ft | 270 kts | 160° |
| 2026-04-21 23:32 | 56.05151 | 12.63035 | 6148 ft | 271 kts | 160° |
| 2026-04-21 23:32 | 56.03413 | 12.64307 | 5890 ft | 269 kts | 160° |
| 2026-04-21 23:33 | 56.01681 | 12.65570 | 5639 ft | 269 kts | 161° |
| 2026-04-21 23:33 | 55.98076 | 12.67992 | 5106 ft | 267 kts | 161° |
| 2026-04-21 23:33 | 55.96347 | 12.69224 | 4849 ft | 267 kts | 160° |
| 2026-04-21 23:34 | 55.94636 | 12.70489 | 4590 ft | 266 kts | 160° |
| 2026-04-21 23:34 | 55.92938 | 12.71771 | 4354 ft | 264 kts | 159° |
| 2026-04-21 23:34 | 55.91247 | 12.73063 | 4215 ft | 264 kts | 159° |
| 2026-04-21 23:34 | 55.89556 | 12.74361 | 4083 ft | 264 kts | 159° |
| 2026-04-21 23:35 | 55.87876 | 12.75654 | 3952 ft | 263 kts | 159° |
| 2026-04-21 23:35 | 55.86216 | 12.76932 | 3839 ft | 263 kts | 159° |
| 2026-04-21 23:35 | 55.84537 | 12.78226 | 3709 ft | 261 kts | 159° |
| 2026-04-21 23:35 | 55.82909 | 12.79487 | 3582 ft | 249 kts | 159° |
| 2026-04-21 23:36 | 55.81851 | 12.80316 | 3505 ft | 242 kts | 158° |
| 2026-04-21 23:36 | 55.78473 | 12.82986 | 3220 ft | 219 kts | 158° |
| 2026-04-21 23:36 | 55.77103 | 12.84072 | 3100 ft | 211 kts | 158° |
| 2026-04-21 23:37 | 55.75746 | 12.84965 | 3037 ft | 207 kts | 169° |
| 2026-04-21 23:37 | 55.74350 | 12.84576 | 3013 ft | 205 kts | 206° |
| 2026-04-21 23:37 | 55.73179 | 12.83274 | 2906 ft | 192 kts | 229° |
| 2026-04-21 23:37 | 55.72240 | 12.81709 | 2631 ft | 185 kts | 227° |
| 2026-04-21 23:38 | 55.71275 | 12.80255 | 2387 ft | 178 kts | 228° |
| 2026-04-21 23:38 | 55.70356 | 12.78826 | 2128 ft | 176 kts | 229° |
| 2026-04-21 23:38 | 55.69434 | 12.77388 | 1881 ft | 177 kts | 229° |
| 2026-04-21 23:38 | 55.68507 | 12.75950 | 1633 ft | 176 kts | 230° |
| 2026-04-21 23:39 | 55.67590 | 12.74531 | 1393 ft | 173 kts | 230° |
| 2026-04-21 23:39 | 55.66685 | 12.73136 | 1146 ft | 171 kts | 230° |
| 2026-04-21 23:39 | 55.65791 | 12.71755 | 914 ft | 169 kts | 230° |
| 2026-04-21 23:39 | 55.64918 | 12.70406 | 687 ft | 164 kts | 229° |
| 2026-04-21 23:40 | 55.64074 | 12.69105 | 455 ft | 159 kts | 227° |
| 2026-04-21 23:40 | 55.63207 | 12.67894 | 236 ft | 158 kts | 227° |
| 2026-04-21 23:40 | 55.62430 | 12.66575 | 97 ft | 154 kts | 227° |
| 2026-04-21 23:40 | 55.61629 | 12.65350 | 30 ft | 144 kts | 230° |
| 2026-04-21 23:41 | 55.61003 | 12.64375 | 20 ft | 94 kts | 220° |
| 2026-04-21 23:41 | 55.60648 | 12.63825 | 28 ft | 47 kts | 221° |
| 2026-04-21 23:41 | 55.60432 | 12.63496 | 24 ft | 18 kts | 227° |
| 2026-04-21 23:41 | 55.60415 | 12.63389 | 24 ft | 12 kts | 280° |
| 2026-04-21 23:42 | 55.60467 | 12.63257 | 25 ft | 14 kts | 313° |
| 2026-04-21 23:42 | 55.60552 | 12.63242 | 23 ft | 14 kts | 31° |
| 2026-04-21 23:42 | 55.60641 | 12.63372 | 21 ft | 18 kts | 37° |
| 2026-04-21 23:42 | 55.60747 | 12.63497 | 21 ft | 19 kts | 33° |
| 2026-04-21 23:43 | 55.60861 | 12.63632 | 22 ft | 20 kts | 33° |
| 2026-04-21 23:43 | 55.60983 | 12.63774 | 22 ft | 22 kts | 33° |
| 2026-04-21 23:43 | 55.61111 | 12.63921 | 21 ft | 23 kts | 33° |
| 2026-04-21 23:43 | 55.61247 | 12.64079 | 22 ft | 24 kts | 32° |
| 2026-04-21 23:44 | 55.61390 | 12.64241 | 22 ft | 25 kts | 33° |
| 2026-04-21 23:44 | 55.61539 | 12.64412 | 23 ft | 26 kts | 33° |
| 2026-04-21 23:44 | 55.61693 | 12.64589 | 23 ft | 27 kts | 33° |
| 2026-04-21 23:44 | 55.61852 | 12.64772 | 22 ft | 28 kts | 33° |
| 2026-04-21 23:45 | 55.62016 | 12.64961 | 25 ft | 28 kts | 33° |
| 2026-04-21 23:45 | 55.62342 | 12.65206 | 22 ft | 24 kts | 0° |
| 2026-04-21 23:45 | 55.62519 | 12.65198 | 21 ft | 27 kts | 359° |
| 2026-04-21 23:46 | 55.62564 | 12.65197 | 21 ft | 0 kts | 359° |
| 2026-04-21 23:46 | 55.62570 | 12.65186 | 21 ft | 3 kts | 316° |
| 2026-04-21 23:46 | 55.62570 | 12.65152 | 21 ft | 4 kts | 274° |
| 2026-04-21 23:46 | 55.62571 | 12.65121 | 21 ft | 0 kts | 273° |
| 2026-04-21 23:47 | 55.62571 | 12.65116 | 21 ft | 1 kts | 272° |
| 2026-04-21 23:47 | 55.62570 | 12.65084 | 21 ft | 4 kts | 269° |
| 2026-04-21 23:47 | 55.62570 | 12.65062 | 21 ft | 2 kts | 269° |
| 2026-04-21 23:48 | 55.62570 | 12.65054 | 21 ft | 0 kts | 269° |
| 2026-04-21 23:48 | 55.62570 | 12.65052 | 21 ft | 0 kts | 269° |